createdAt,value
2019-01-29T04:03:41.198Z,20.10
2019-01-29T04:06:32.647Z,20.10
2019-01-29T04:09:26.854Z,20.10
2019-01-29T04:12:17.945Z,20.10
2019-01-29T04:15:12.133Z,20.10
2019-01-29T04:18:03.369Z,20.10
2019-01-29T04:20:54.952Z,20.10
2019-01-29T04:23:47.726Z,20.10
2019-01-29T04:26:39.504Z,20.10
2019-01-29T04:29:32.273Z,20.10
2019-01-29T04:32:25.015Z,20.10
2019-01-29T04:35:18.555Z,20.10
2019-01-29T04:38:11.612Z,20.10
2019-01-29T04:41:02.753Z,20.00
2019-01-29T04:43:54.448Z,20.10
2019-01-29T04:46:46.674Z,20.00
2019-01-29T04:49:38.760Z,20.00
2019-01-29T04:52:29.810Z,20.00
2019-01-29T04:55:23.296Z,20.00
2019-01-29T04:58:14.789Z,20.00
2019-01-29T05:01:14.591Z,20.00
2019-01-29T05:04:12.158Z,20.00
2019-01-29T05:07:04.178Z,20.00
2019-01-29T05:09:56.008Z,20.00
2019-01-29T05:12:48.156Z,20.00
2019-01-29T05:15:40.941Z,20.00
2019-01-29T05:18:32.894Z,20.00
2019-01-29T05:21:25.467Z,20.00
2019-01-29T05:24:16.710Z,20.00
2019-01-29T05:27:09.454Z,20.00
2019-01-29T05:30:00.896Z,20.00
2019-01-29T05:32:55.877Z,20.00
2019-01-29T05:35:48.257Z,20.00
2019-01-29T05:38:43.718Z,20.00
2019-01-29T05:41:36.004Z,20.00
2019-01-29T05:44:29.464Z,20.00
2019-01-29T05:47:21.283Z,20.00
2019-01-29T05:50:13.274Z,20.00
2019-01-29T05:53:06.181Z,20.00
2019-01-29T05:56:01.619Z,20.00
2019-01-29T05:58:53.759Z,20.00
2019-01-29T06:12:57.099Z,20.00
2019-01-29T06:15:49.330Z,20.00
2019-01-29T06:18:42.411Z,20.00
2019-01-29T06:21:34.050Z,20.00
2019-01-29T06:24:26.197Z,20.00
2019-01-29T06:27:28.964Z,20.00
2019-01-29T06:30:32.565Z,20.00
2019-01-29T06:33:35.195Z,20.00
2019-01-29T06:36:27.079Z,20.00
2019-01-29T06:39:18.575Z,20.00
2019-01-29T06:42:10.322Z,20.00
2019-01-29T06:45:03.693Z,20.00
2019-01-29T06:47:57.564Z,20.10
2019-01-29T06:50:50.062Z,20.10
2019-01-29T06:53:41.735Z,20.10
2019-01-29T06:56:33.157Z,20.10
2019-01-29T06:59:27.047Z,20.00
2019-01-29T07:02:19.520Z,20.10
2019-01-29T07:05:11.314Z,20.00
2019-01-29T07:08:02.961Z,20.10
2019-01-29T07:10:55.078Z,20.10
2019-01-29T07:13:52.068Z,20.10
2019-01-29T07:28:19.522Z,20.10
2019-01-29T07:31:17.732Z,20.10
2019-01-29T07:34:12.758Z,20.00
2019-01-29T07:37:05.594Z,20.10
2019-01-29T07:39:57.776Z,20.10
2019-01-29T07:42:55.644Z,20.10
2019-01-29T07:45:47.997Z,20.10
2019-01-29T07:48:39.953Z,20.10
2019-01-29T07:51:32.272Z,20.10
2019-01-29T07:54:33.285Z,20.10
2019-01-29T07:57:30.149Z,20.10
2019-01-29T08:00:24.142Z,20.10
2019-01-29T08:03:24.613Z,20.10
2019-01-29T08:18:20.624Z,20.10
2019-01-29T08:21:15.982Z,20.00
2019-01-29T08:24:11.191Z,20.10
2019-01-29T08:27:03.219Z,20.10
2019-01-29T08:29:56.162Z,20.10
2019-01-29T08:32:56.200Z,20.10
2019-01-29T08:35:56.437Z,20.10
2019-01-29T08:38:48.942Z,20.10
2019-01-29T08:41:41.243Z,20.10
2019-01-29T08:44:32.829Z,20.10
2019-01-29T08:47:26.017Z,20.10
2019-01-29T08:50:20.676Z,20.10
2019-01-29T08:53:14.878Z,20.10
2019-01-29T08:56:07.366Z,20.10
2019-01-29T08:59:00.820Z,20.10
2019-01-29T09:01:53.454Z,20.10
2019-01-29T09:04:46.496Z,20.10
2019-01-29T09:07:38.465Z,20.10
2019-01-29T09:10:30.655Z,20.10
2019-01-29T09:13:24.742Z,20.10
2019-01-29T09:16:17.790Z,20.10
2019-01-29T09:19:10.941Z,20.10
2019-01-29T09:22:04.319Z,20.10
2019-01-29T09:24:58.193Z,20.10
2019-01-29T09:27:51.955Z,20.10
2019-01-29T09:30:45.109Z,20.10
2019-01-29T09:33:37.206Z,20.10
2019-01-29T09:36:34.910Z,20.10
2019-01-29T09:39:28.240Z,20.10
2019-01-29T09:42:20.700Z,20.10
2019-01-29T09:45:21.361Z,20.10
2019-01-29T09:48:15.511Z,20.10
2019-01-29T09:51:08.375Z,20.00
2019-01-29T09:54:03.448Z,20.00
2019-01-29T09:56:59.170Z,20.10
2019-01-29T09:59:51.673Z,20.10
2019-01-29T10:02:54.011Z,20.10
2019-01-29T10:05:49.394Z,20.10
2019-01-29T10:08:49.902Z,20.00
2019-01-29T10:11:44.229Z,20.10
2019-01-29T10:14:40.784Z,20.00
2019-01-29T10:17:40.218Z,20.10
2019-01-29T10:20:38.848Z,20.10
2019-01-29T10:23:40.853Z,20.10
2019-01-29T10:26:34.761Z,20.10
2019-01-29T10:29:35.714Z,20.10
2019-01-29T10:32:27.813Z,20.10
2019-01-29T10:35:20.544Z,20.00
2019-01-29T10:38:12.424Z,20.00
2019-01-29T10:41:05.408Z,20.10
2019-01-29T10:43:58.585Z,20.10
2019-01-29T10:46:51.729Z,20.00
2019-01-29T10:49:52.112Z,20.00
2019-01-29T10:52:44.877Z,20.00
2019-01-29T10:55:36.783Z,20.00
2019-01-29T10:58:28.316Z,20.10
2019-01-29T11:01:20.665Z,20.10
2019-01-29T11:04:12.208Z,20.00
2019-01-29T11:07:04.990Z,20.00
2019-01-29T11:09:57.445Z,20.10
2019-01-29T11:12:50.375Z,20.00
2019-01-29T11:15:43.718Z,20.10
2019-01-29T11:18:36.064Z,20.10
2019-01-29T11:21:28.916Z,20.10
2019-01-29T11:24:21.961Z,20.10
2019-01-29T11:27:14.929Z,20.00
2019-01-29T11:30:07.364Z,20.00
2019-01-29T11:33:08.590Z,20.10
2019-01-29T11:36:04.520Z,20.10
2019-01-29T11:38:56.339Z,20.00
2019-01-29T11:41:49.204Z,20.10
2019-01-29T11:44:42.294Z,20.10
2019-01-29T11:47:34.435Z,20.10
2019-01-29T11:50:27.970Z,20.00
2019-01-29T11:53:19.780Z,20.00
2019-01-29T11:56:12.104Z,20.10
2019-01-29T11:59:04.968Z,20.10
2019-01-29T13:04:54.873Z,20.10
2019-01-29T13:07:46.576Z,20.10
2019-01-29T13:10:39.046Z,20.10
2019-01-29T13:13:30.801Z,20.10
2019-01-29T13:16:23.052Z,20.10
2019-01-29T13:19:16.371Z,20.10
2019-01-29T13:22:08.160Z,20.10
2019-01-29T13:24:59.455Z,20.10
2019-01-29T13:27:52.883Z,20.10
2019-01-29T13:30:44.570Z,20.10
2019-01-29T13:33:37.648Z,20.10
2019-01-29T13:36:31.073Z,20.10
2019-01-29T13:39:23.810Z,20.10
2019-01-29T13:42:16.223Z,20.00
2019-01-29T13:45:08.531Z,20.10
2019-01-29T13:48:00.444Z,20.10
2019-01-29T13:50:53.422Z,20.10
2019-01-29T13:53:45.027Z,20.00
2019-01-29T13:56:38.978Z,20.10
2019-01-29T13:59:29.206Z,20.10
2019-01-29T14:02:28.948Z,20.10
2019-01-29T14:05:23.509Z,20.10
2019-01-29T14:08:32.155Z,20.10
2019-01-29T14:11:41.790Z,20.10
2019-01-29T14:14:43.058Z,20.10
2019-01-29T14:17:34.321Z,20.10
2019-01-29T14:20:26.318Z,20.10
2019-01-29T14:23:18.252Z,20.10
2019-01-29T14:26:10.288Z,20.00
2019-01-29T14:29:02.758Z,20.10
2019-01-29T14:31:56.740Z,20.00
2019-01-29T14:34:49.175Z,20.00
2019-01-29T14:37:59.921Z,20.00
2019-01-29T14:40:52.437Z,20.00
2019-01-29T14:43:48.347Z,20.00
2019-01-29T14:46:54.917Z,20.00
2019-01-29T14:49:47.802Z,20.00
2019-01-29T14:52:39.699Z,20.00
2019-01-29T14:55:40.582Z,20.00
2019-01-29T14:58:47.442Z,19.90
2019-01-29T15:01:44.474Z,20.00
2019-01-29T15:04:47.093Z,20.00
2019-01-29T15:07:47.010Z,20.00
2019-01-29T15:10:38.411Z,20.00
2019-01-29T15:13:30.245Z,20.00
2019-01-29T15:16:38.480Z,19.90
2019-01-29T15:19:31.387Z,19.90
2019-01-29T15:22:23.443Z,19.90
2019-01-29T15:25:15.056Z,19.90
2019-01-29T15:28:07.336Z,19.90
2019-01-29T15:30:58.947Z,19.90
2019-01-29T15:33:50.887Z,19.90
2019-01-29T15:36:44.160Z,19.90
2019-01-29T15:39:36.226Z,19.90
2019-01-29T15:42:29.833Z,19.90
2019-01-29T15:45:25.163Z,19.90
2019-01-29T15:48:26.523Z,19.90
2019-01-29T15:51:47.848Z,19.90
2019-01-29T15:54:48.175Z,19.90
2019-01-29T15:57:46.638Z,19.90
2019-01-29T16:00:41.385Z,19.90
2019-01-29T16:03:34.332Z,19.90
2019-01-29T16:06:31.031Z,19.90
2019-01-29T16:09:23.946Z,19.90
2019-01-29T16:12:17.658Z,19.90
2019-01-29T16:15:09.618Z,19.90
2019-01-29T16:18:01.139Z,19.90
2019-01-29T16:20:52.279Z,19.90
2019-01-29T16:23:45.454Z,19.90
2019-01-29T16:26:36.641Z,19.90
2019-01-29T16:29:27.933Z,19.90
2019-01-29T16:32:19.473Z,19.90
2019-01-29T16:35:10.847Z,19.90
2019-01-29T16:38:02.474Z,19.80
2019-01-29T16:41:00.426Z,19.80
2019-01-29T16:43:46.520Z,19.80
2019-01-29T16:46:37.779Z,19.80
2019-01-29T16:49:29.303Z,19.80
2019-01-29T16:52:21.197Z,19.80
2019-01-29T16:55:17.927Z,19.80
2019-01-29T16:58:11.637Z,19.80
2019-01-29T17:01:05.865Z,19.80
2019-01-29T17:03:57.387Z,19.80
2019-01-29T17:06:50.747Z,19.80
2019-01-29T17:09:42.546Z,19.80
2019-01-29T17:12:34.728Z,19.80
2019-01-29T17:15:27.688Z,19.80
2019-01-29T17:18:19.609Z,19.80
2019-01-29T17:21:10.866Z,19.70
2019-01-29T17:24:03.170Z,19.70
2019-01-29T17:26:55.149Z,19.70
2019-01-29T17:29:48.881Z,19.70
2019-01-29T17:32:40.052Z,19.70
2019-01-29T17:35:31.750Z,19.70
2019-01-29T17:38:23.162Z,19.70
2019-01-29T17:41:15.629Z,19.70
2019-01-29T17:44:11.927Z,19.70
2019-01-29T17:47:10.111Z,19.70
2019-01-29T17:50:05.871Z,19.70
2019-01-29T17:53:02.535Z,19.70
2019-01-29T17:59:15.883Z,19.70
2019-01-29T18:02:20.716Z,19.60
2019-01-29T18:05:14.807Z,19.70
2019-01-29T18:08:09.840Z,19.70
2019-01-29T18:11:01.130Z,19.70
2019-01-29T18:13:52.522Z,19.60
2019-01-29T18:16:43.687Z,19.60
2019-01-29T18:19:34.778Z,19.60
2019-01-29T18:22:26.718Z,19.60
2019-01-29T18:25:18.903Z,19.60
2019-01-29T18:28:10.765Z,19.60
2019-01-29T18:31:01.979Z,19.60
2019-01-29T18:33:53.556Z,19.60
2019-01-29T18:36:47.172Z,19.60
2019-01-29T18:39:39.047Z,19.60
2019-01-29T18:42:30.156Z,19.60
2019-01-29T18:45:21.831Z,19.50
2019-01-29T18:48:13.335Z,19.50
2019-01-29T18:51:04.777Z,19.50
2019-01-29T18:53:56.048Z,19.50
2019-01-29T18:56:47.414Z,19.50
2019-01-29T18:59:39.307Z,19.50
2019-01-29T19:02:30.815Z,19.50
2019-01-29T19:05:21.798Z,19.50
2019-01-29T19:08:13.750Z,19.50
2019-01-29T19:11:07.671Z,19.50
2019-01-29T19:13:58.145Z,19.50
2019-01-29T19:16:49.514Z,19.40
2019-01-29T19:19:40.973Z,19.40
2019-01-29T19:22:32.185Z,19.40
2019-01-29T19:25:23.591Z,19.40
2019-01-29T19:28:21.763Z,19.40
2019-01-29T19:31:09.335Z,19.40
2019-01-29T19:34:00.791Z,19.40
2019-01-29T19:36:52.935Z,19.40
2019-01-29T19:39:44.427Z,19.40
2019-01-29T19:42:36.180Z,19.40
2019-01-29T19:45:28.665Z,19.40
2019-01-29T19:48:23.426Z,19.30
2019-01-29T19:51:14.905Z,19.30
2019-01-29T19:54:08.654Z,19.30
2019-01-29T19:57:02.604Z,19.30
2019-01-29T19:59:54.978Z,19.30
2019-01-29T20:02:46.591Z,19.30
2019-01-29T20:05:38.446Z,19.30
2019-01-29T20:08:36.680Z,19.30
2019-01-29T20:11:28.387Z,19.30
2019-01-29T20:14:19.677Z,19.30
2019-01-29T20:17:11.601Z,19.30
2019-01-29T20:20:04.499Z,19.30
2019-01-29T20:22:56.044Z,19.20
2019-01-29T20:25:47.439Z,19.20
2019-01-29T20:28:42.446Z,19.20
2019-01-29T20:31:31.383Z,19.20
2019-01-29T20:34:23.128Z,19.20
2019-01-29T20:37:14.567Z,19.20
2019-01-29T20:40:05.975Z,19.20
2019-01-29T20:42:57.360Z,19.20
2019-01-29T20:45:49.130Z,19.20
2019-01-29T20:48:40.685Z,19.20
2019-01-29T20:51:32.225Z,19.20
2019-01-29T20:54:24.090Z,19.20
2019-01-29T20:57:15.473Z,19.10
2019-01-29T21:00:07.685Z,19.10
2019-01-29T21:02:59.039Z,19.10
2019-01-29T21:05:50.173Z,19.10
2019-01-29T21:08:42.341Z,19.10
2019-01-29T21:11:34.301Z,19.10
2019-01-29T21:14:26.441Z,19.10
2019-01-29T21:17:17.364Z,19.10
2019-01-29T21:20:09.183Z,19.10
2019-01-29T21:23:00.475Z,19.00
2019-01-29T21:25:52.267Z,19.00
2019-01-29T21:28:43.726Z,19.00
2019-01-29T21:31:35.089Z,19.00
2019-01-29T21:34:26.307Z,19.00
2019-01-29T21:37:18.158Z,19.00
2019-01-29T21:40:10.315Z,19.00
2019-01-29T21:43:01.720Z,19.00
2019-01-29T21:45:53.210Z,19.00
2019-01-29T21:48:44.838Z,19.00
2019-01-29T21:51:35.934Z,19.00
2019-01-29T21:54:27.445Z,19.00
2019-01-29T21:57:18.840Z,19.00
2019-01-29T22:00:12.079Z,19.00
2019-01-29T22:03:03.673Z,19.00
2019-01-29T22:05:55.361Z,18.90
2019-01-29T22:08:46.942Z,18.90
2019-01-29T22:11:42.130Z,18.90
2019-01-29T22:14:33.664Z,18.90
2019-01-29T22:17:24.983Z,18.90
2019-01-29T22:20:18.018Z,18.90
2019-01-29T22:23:09.420Z,18.90
2019-01-29T22:26:00.757Z,18.90
2019-01-29T22:28:52.264Z,18.90
2019-01-29T22:31:43.328Z,18.90
2019-01-29T22:34:34.467Z,18.90
2019-01-29T22:37:26.010Z,18.90
2019-01-29T22:40:26.953Z,18.90
2019-01-29T22:43:18.386Z,18.90
2019-01-29T22:46:10.157Z,18.90
2019-01-29T22:49:01.268Z,18.80
2019-01-29T22:51:52.632Z,18.80
2019-01-29T22:54:44.019Z,18.80
2019-01-29T22:57:35.659Z,18.80
2019-01-29T23:00:58.614Z,18.80
2019-01-29T23:03:51.713Z,18.80
2019-01-29T23:06:48.958Z,18.80
2019-01-29T23:09:40.389Z,18.80
2019-01-29T23:12:31.767Z,18.80
2019-01-29T23:15:23.208Z,18.80
2019-01-29T23:18:14.346Z,18.80
2019-01-29T23:21:06.107Z,18.80
2019-01-29T23:23:57.217Z,18.70
2019-01-29T23:26:48.979Z,18.70
2019-01-29T23:29:43.519Z,18.70
2019-01-29T23:32:32.862Z,18.70
2019-01-29T23:35:24.270Z,18.70
2019-01-29T23:38:15.936Z,18.70
2019-01-29T23:41:07.353Z,18.70
2019-01-29T23:43:58.628Z,18.70
2019-01-29T23:46:50.022Z,18.70
2019-01-29T23:49:41.384Z,18.70
2019-01-29T23:52:32.793Z,18.70
2019-01-29T23:55:24.194Z,18.70
2019-01-29T23:58:15.340Z,18.70
